createdAt,value
2018-06-19T00:01:17.921Z,19.63
2018-06-19T00:03:48.011Z,19.65
2018-06-19T00:06:18.114Z,19.26
2018-06-19T00:08:48.199Z,19.23
2018-06-19T00:11:18.215Z,19.29
2018-06-19T00:13:48.530Z,19.26
2018-06-19T00:16:18.673Z,19.15
2018-06-19T00:18:53.981Z,19.28
2018-06-19T00:21:55.217Z,19.27
2018-06-19T00:24:25.635Z,19.42
2018-06-19T00:26:55.734Z,19.31
2018-06-19T00:29:25.885Z,19.32
2018-06-19T00:31:55.942Z,19.32
2018-06-19T00:34:26.346Z,19.41
2018-06-19T00:36:56.336Z,19.43
2018-06-19T00:39:26.351Z,19.40
2018-06-19T00:41:56.426Z,19.49
2018-06-19T00:44:26.197Z,19.43
2018-06-19T00:46:56.876Z,19.48
2018-06-19T00:49:26.994Z,19.39
2018-06-19T00:51:57.533Z,19.47
2018-06-19T00:54:27.815Z,19.36
2018-06-19T00:56:59.970Z,19.28
2018-06-19T00:59:30.257Z,19.32
2018-06-19T01:02:01.510Z,19.42
2018-06-19T01:04:31.576Z,19.38
2018-06-19T01:07:01.650Z,19.31
2018-06-19T01:09:31.391Z,19.34
2018-06-19T01:12:02.335Z,19.07
2018-06-19T01:14:33.252Z,19.29
2018-06-19T01:20:26.766Z,19.35
2018-06-19T01:22:56.850Z,19.14
2018-06-19T01:25:26.736Z,19.05
2018-06-19T01:27:56.891Z,19.03
2018-06-19T01:30:26.746Z,19.08
2018-06-19T01:32:56.657Z,19.04
2018-06-19T01:35:26.550Z,19.02
2018-06-19T01:37:56.470Z,19.03
2018-06-19T01:40:26.511Z,19.02
2018-06-19T01:42:56.533Z,19.01
2018-06-19T01:45:26.150Z,18.98
2018-06-19T01:47:56.140Z,18.98
2018-06-19T01:50:26.262Z,18.95
2018-06-19T01:52:56.191Z,18.86
2018-06-19T01:55:26.190Z,18.89
2018-06-19T01:57:56.265Z,18.87
2018-06-19T02:00:26.367Z,18.89
2018-06-19T02:02:56.607Z,18.95
2018-06-19T02:05:26.910Z,18.95
2018-06-19T02:07:57.157Z,18.95
2018-06-19T02:10:27.572Z,19.06
2018-06-19T02:12:57.487Z,19.03
2018-06-19T02:15:27.659Z,19.02
2018-06-19T02:17:57.536Z,19.10
2018-06-19T02:20:28.045Z,19.11
2018-06-19T02:22:57.925Z,19.12
2018-06-19T02:25:28.160Z,19.16
2018-06-19T02:27:57.794Z,19.19
2018-06-19T02:30:27.915Z,19.10
2018-06-19T02:32:58.120Z,19.12
2018-06-19T02:35:28.166Z,19.09
2018-06-19T02:37:58.167Z,19.05
2018-06-19T02:40:27.969Z,19.00
2018-06-19T02:42:57.956Z,18.99
2018-06-19T02:45:28.128Z,18.97
2018-06-19T02:47:58.345Z,18.88
2018-06-19T02:50:28.495Z,18.97
2018-06-19T02:52:58.786Z,18.96
2018-06-19T02:55:29.062Z,18.85
2018-06-19T02:57:59.045Z,18.90
2018-06-19T03:00:29.166Z,18.79
2018-06-19T03:02:59.331Z,18.64
2018-06-19T03:05:29.662Z,18.72
2018-06-19T03:07:59.850Z,18.86
2018-06-19T03:10:29.937Z,18.91
2018-06-19T03:13:00.281Z,18.84
2018-06-19T03:15:30.417Z,18.96
2018-06-19T03:18:00.513Z,18.94
2018-06-19T03:20:31.028Z,18.97
2018-06-19T03:23:00.965Z,18.92
2018-06-19T03:25:31.121Z,18.91
2018-06-19T03:28:01.221Z,18.92
2018-06-19T03:30:31.000Z,18.79
2018-06-19T03:33:01.023Z,18.86
2018-06-19T03:35:31.095Z,18.90
2018-06-19T03:38:01.339Z,18.94
2018-06-19T03:40:31.130Z,18.92
2018-06-19T03:43:01.050Z,18.90
2018-06-19T03:45:30.882Z,18.85
2018-06-19T03:48:00.977Z,18.77
2018-06-19T03:50:31.160Z,18.75
2018-06-19T03:53:01.296Z,18.77
2018-06-19T03:55:31.171Z,18.80
2018-06-19T03:58:00.915Z,18.80
2018-06-19T04:00:31.102Z,18.70
2018-06-19T04:03:01.096Z,18.69
2018-06-19T04:05:31.310Z,18.70
2018-06-19T04:08:01.262Z,18.67
2018-06-19T04:10:31.120Z,18.62
2018-06-19T04:13:01.265Z,18.67
2018-06-19T04:15:31.400Z,18.69
2018-06-19T04:18:01.516Z,18.61
2018-06-19T04:20:31.637Z,18.70
2018-06-19T04:23:01.834Z,18.55
2018-06-19T04:25:32.014Z,18.62
2018-06-19T04:28:02.133Z,18.58
2018-06-19T04:30:32.301Z,18.64
2018-06-19T04:33:02.703Z,18.64
2018-06-19T04:35:32.701Z,18.67
2018-06-19T04:38:02.565Z,18.76
2018-06-19T04:40:33.434Z,18.65
2018-06-19T04:43:04.247Z,18.70
2018-06-19T04:45:35.405Z,18.72
2018-06-19T04:50:24.490Z,18.64
2018-06-19T04:52:54.435Z,18.69
2018-06-19T04:55:24.570Z,18.63
2018-06-19T04:57:54.806Z,18.50
2018-06-19T05:00:25.148Z,18.55
2018-06-19T05:02:55.255Z,18.56
2018-06-19T05:05:25.522Z,18.47
2018-06-19T05:07:55.414Z,18.56
2018-06-19T05:10:25.721Z,18.60
2018-06-19T05:12:56.009Z,18.57
2018-06-19T05:15:26.019Z,18.72
2018-06-19T05:17:56.213Z,18.70
2018-06-19T05:20:26.468Z,18.68
2018-06-19T05:22:56.169Z,18.58
2018-06-19T05:25:26.042Z,18.53
2018-06-19T05:27:56.277Z,18.48
2018-06-19T05:30:26.174Z,18.47
2018-06-19T05:32:56.466Z,18.46
2018-06-19T05:35:27.556Z,18.43
2018-06-19T05:40:26.662Z,18.50
2018-06-19T05:42:56.656Z,18.41
2018-06-19T05:45:26.738Z,18.54
2018-06-19T05:47:56.916Z,18.62
2018-06-19T05:50:26.920Z,18.57
2018-06-19T05:52:57.126Z,18.65
2018-06-19T05:55:26.986Z,18.67
2018-06-19T05:57:56.962Z,18.67
2018-06-19T06:00:27.038Z,18.69
2018-06-19T06:02:56.937Z,18.76
2018-06-19T06:05:27.197Z,18.66
2018-06-19T06:07:57.366Z,18.61
2018-06-19T06:10:27.614Z,18.74
2018-06-19T06:12:57.671Z,18.75
2018-06-19T06:15:27.860Z,18.69
2018-06-19T06:17:58.147Z,18.75
2018-06-19T06:20:28.369Z,18.77
2018-06-19T06:22:58.567Z,18.75
2018-06-19T06:25:28.768Z,18.72
2018-06-19T06:27:58.933Z,18.84
2018-06-19T06:30:29.001Z,18.79
2018-06-19T06:32:59.172Z,18.76
2018-06-19T06:35:29.334Z,18.79
2018-06-19T06:37:59.326Z,18.73
2018-06-19T06:40:29.393Z,18.83
2018-06-19T06:42:59.363Z,18.94
2018-06-19T06:45:29.283Z,18.86
2018-06-19T06:47:59.016Z,18.81
2018-06-19T06:50:29.749Z,18.85
2018-06-19T06:53:00.213Z,18.98
2018-06-19T06:55:30.267Z,19.03
2018-06-19T06:58:00.284Z,19.00
2018-06-19T07:00:30.211Z,19.10
2018-06-19T07:02:59.702Z,19.12
2018-06-19T07:05:29.897Z,19.16
2018-06-19T07:08:00.127Z,19.15
2018-06-19T07:10:30.343Z,19.04
2018-06-19T07:13:00.557Z,19.14
2018-06-19T07:15:30.700Z,19.18
2018-06-19T07:18:00.643Z,19.10
2018-06-19T07:20:30.992Z,19.19
2018-06-19T07:23:01.313Z,19.24
2018-06-19T07:25:31.592Z,19.14
2018-06-19T07:28:01.567Z,19.11
2018-06-19T07:30:31.806Z,18.96
2018-06-19T07:33:01.897Z,19.09
2018-06-19T07:35:32.208Z,19.14
2018-06-19T07:38:01.968Z,19.36
2018-06-19T07:40:31.716Z,19.34
2018-06-19T07:43:03.691Z,19.19
2018-06-19T07:45:34.622Z,19.06
2018-06-19T07:48:04.703Z,18.91
2018-06-19T07:50:34.617Z,19.11
2018-06-19T07:53:04.613Z,19.16
2018-06-19T07:55:34.984Z,19.19
2018-06-19T07:58:05.317Z,19.18
2018-06-19T08:00:35.158Z,19.03
2018-06-19T08:03:05.390Z,19.02
2018-06-19T08:05:35.582Z,19.01
2018-06-19T08:08:06.614Z,19.13
2018-06-19T08:10:36.979Z,19.25
2018-06-19T08:13:07.103Z,19.27
2018-06-19T08:15:37.360Z,19.11
2018-06-19T08:18:07.568Z,19.05
2018-06-19T08:20:37.677Z,19.03
2018-06-19T08:23:08.036Z,19.16
2018-06-19T08:25:38.125Z,19.09
2018-06-19T08:28:08.258Z,18.94
2018-06-19T08:30:38.455Z,18.93
2018-06-19T08:33:08.397Z,19.11
2018-06-19T08:35:38.233Z,19.33
2018-06-19T08:38:07.672Z,19.49
2018-06-19T08:40:38.373Z,19.49
2018-06-19T08:43:08.317Z,19.38
2018-06-19T08:45:38.698Z,19.47
2018-06-19T08:48:09.117Z,19.56
2018-06-19T08:50:39.228Z,19.58
2018-06-19T08:53:09.279Z,19.51
2018-06-19T08:55:39.278Z,19.28
2018-06-19T08:58:09.674Z,19.34
2018-06-19T09:00:39.847Z,19.48
2018-06-19T09:03:10.399Z,19.61
2018-06-19T09:05:40.624Z,19.62
2018-06-19T09:08:10.795Z,19.65
2018-06-19T09:10:40.770Z,19.61
2018-06-19T09:13:11.013Z,19.68
2018-06-19T09:15:41.158Z,19.74
2018-06-19T09:18:11.194Z,19.81
2018-06-19T09:20:40.806Z,19.70
2018-06-19T09:23:10.959Z,19.77
2018-06-19T09:25:41.530Z,19.89
2018-06-19T09:28:12.063Z,19.87
2018-06-19T09:30:42.142Z,19.85
2018-06-19T09:33:12.254Z,19.90
2018-06-19T09:35:42.704Z,19.91
2018-06-19T09:38:12.803Z,19.74
2018-06-19T09:40:43.148Z,19.77
2018-06-19T09:43:13.260Z,19.83
2018-06-19T09:45:43.501Z,19.94
2018-06-19T09:48:13.574Z,20.02
2018-06-19T09:50:44.040Z,19.95
2018-06-19T09:53:14.197Z,20.07
2018-06-19T09:55:44.218Z,20.14
2018-06-19T09:58:14.545Z,20.17
2018-06-19T10:00:44.684Z,20.21
2018-06-19T10:03:15.633Z,20.13
2018-06-19T10:05:46.040Z,20.20
2018-06-19T10:08:16.202Z,20.24
2018-06-19T10:10:46.234Z,20.24
2018-06-19T10:13:16.657Z,20.17
2018-06-19T10:15:46.877Z,20.17
2018-06-19T10:18:16.999Z,20.04
2018-06-19T10:20:47.070Z,20.04
2018-06-19T10:23:17.255Z,20.15
2018-06-19T10:25:47.608Z,20.07
2018-06-19T10:28:17.735Z,20.06
2018-06-19T10:30:48.029Z,20.10
2018-06-19T10:33:18.695Z,20.27
2018-06-19T10:35:48.941Z,20.44
2018-06-19T10:38:19.498Z,20.49
2018-06-19T10:40:49.609Z,20.56
2018-06-19T10:43:20.016Z,20.50
2018-06-19T10:45:50.352Z,20.33
2018-06-19T10:48:20.371Z,20.21
2018-06-19T10:50:50.501Z,20.33
2018-06-19T10:53:20.674Z,20.51
2018-06-19T10:55:51.011Z,20.64
2018-06-19T10:58:22.072Z,20.69
2018-06-19T11:00:52.289Z,20.65
2018-06-19T11:03:23.473Z,20.66
2018-06-19T11:05:54.005Z,20.71
2018-06-19T11:10:25.222Z,20.78
2018-06-19T11:12:55.437Z,20.79
2018-06-19T11:15:26.038Z,20.77
2018-06-19T11:17:56.328Z,20.77
2018-06-19T11:20:26.733Z,20.77
2018-06-19T11:22:56.760Z,20.86
2018-06-19T11:25:26.895Z,20.90
2018-06-19T11:27:57.109Z,20.90
2018-06-19T11:30:27.370Z,20.78
2018-06-19T11:32:57.460Z,20.90
2018-06-19T11:35:27.699Z,20.99
2018-06-19T11:37:57.858Z,21.11
2018-06-19T11:40:28.080Z,21.14
2018-06-19T11:42:58.288Z,21.30
2018-06-19T11:45:28.428Z,21.33
2018-06-19T11:47:58.576Z,21.46
2018-06-19T11:50:28.946Z,21.61
2018-06-19T11:52:59.539Z,21.67
2018-06-19T11:55:29.789Z,21.77
2018-06-19T11:57:59.986Z,21.89
2018-06-19T12:00:30.192Z,21.97
2018-06-19T12:03:00.849Z,22.06
2018-06-19T12:05:31.013Z,22.21
2018-06-19T12:08:01.240Z,22.23
2018-06-19T12:10:31.336Z,22.32
2018-06-19T12:13:01.463Z,22.53
2018-06-19T12:15:31.682Z,22.68
2018-06-19T12:18:01.845Z,22.81
2018-06-19T12:20:32.129Z,22.86
2018-06-19T12:23:02.446Z,23.09
2018-06-19T12:25:32.833Z,22.87
2018-06-19T12:28:02.951Z,22.89
2018-06-19T12:30:32.910Z,22.97
2018-06-19T12:33:03.150Z,22.88
2018-06-19T12:35:33.235Z,22.81
2018-06-19T12:38:03.417Z,22.69
2018-06-19T12:40:33.860Z,22.46
2018-06-19T12:50:40.265Z,22.42
2018-06-19T12:53:27.185Z,22.86
2018-06-19T12:56:13.955Z,22.79
2018-06-19T12:58:44.699Z,22.74
2018-06-19T13:01:14.516Z,22.74
2018-06-19T13:04:00.900Z,22.83
2018-06-19T13:06:37.332Z,22.84
2018-06-19T13:09:09.831Z,22.92
2018-06-19T13:11:40.019Z,23.04
2018-06-19T13:14:26.784Z,22.99
2018-06-19T13:17:13.534Z,23.06
2018-06-19T13:20:00.085Z,23.10
2018-06-19T13:22:30.189Z,23.17
2018-06-19T13:25:00.321Z,23.26
2018-06-19T13:27:30.814Z,23.23
2018-06-19T13:30:17.541Z,23.23
2018-06-19T13:32:47.975Z,23.03
2018-06-19T13:35:18.188Z,23.06
2018-06-19T13:37:48.640Z,23.29
2018-06-19T13:41:32.500Z,23.41
2018-06-19T13:44:19.200Z,23.35
2018-06-19T13:46:49.578Z,23.30
2018-06-19T13:49:20.355Z,23.32
2018-06-19T13:51:50.422Z,23.04
2018-06-19T13:54:20.949Z,23.06
2018-06-19T13:57:25.038Z,22.88
2018-06-19T13:59:55.238Z,23.11
2018-06-19T14:02:25.531Z,23.10
2018-06-19T14:04:55.746Z,23.02
2018-06-19T14:07:26.638Z,22.96
2018-06-19T14:10:21.796Z,23.09
2018-06-19T14:12:56.595Z,23.32
2018-06-19T14:15:27.860Z,23.43
2018-06-19T14:17:58.498Z,23.51
2018-06-19T14:20:28.850Z,23.50
2018-06-19T14:22:59.066Z,23.48
2018-06-19T14:25:29.335Z,23.50
2018-06-19T14:27:59.479Z,23.39
2018-06-19T14:30:30.055Z,23.41
2018-06-19T14:33:00.151Z,23.38
2018-06-19T14:35:30.064Z,23.25
2018-06-19T14:38:00.191Z,23.33
2018-06-19T14:40:30.469Z,23.31
2018-06-19T14:43:00.906Z,23.37
2018-06-19T14:45:30.652Z,23.42
2018-06-19T14:48:00.649Z,23.39
2018-06-19T14:50:30.785Z,23.40
2018-06-19T14:53:01.426Z,23.40
2018-06-19T14:55:31.336Z,23.47
2018-06-19T14:58:00.870Z,23.45
2018-06-19T15:00:31.023Z,23.49
2018-06-19T15:03:01.145Z,23.48
2018-06-19T15:05:31.381Z,23.44
2018-06-19T15:08:01.110Z,23.37
2018-06-19T15:10:31.727Z,23.35
2018-06-19T15:13:01.951Z,23.31
2018-06-19T15:15:32.195Z,23.24
2018-06-19T15:18:02.399Z,23.30
2018-06-19T15:20:33.065Z,23.30
2018-06-19T15:23:03.811Z,23.29
2018-06-19T15:25:33.906Z,23.30
2018-06-19T15:28:04.022Z,23.23
2018-06-19T15:30:34.305Z,23.15
2018-06-19T15:33:04.424Z,23.14
2018-06-19T15:35:34.050Z,23.08
2018-06-19T15:38:04.183Z,22.89
2018-06-19T15:40:34.565Z,22.92
2018-06-19T15:43:04.724Z,22.93
2018-06-19T15:45:34.799Z,22.91
2018-06-19T15:48:05.002Z,22.96
2018-06-19T15:50:35.020Z,23.04
2018-06-19T15:53:05.244Z,23.08
2018-06-19T15:55:35.365Z,23.11
2018-06-19T15:58:05.494Z,23.15
2018-06-19T16:00:35.843Z,23.10
2018-06-19T16:03:05.797Z,23.02
2018-06-19T16:05:36.177Z,23.07
2018-06-19T16:08:11.379Z,23.06
2018-06-19T16:10:41.484Z,23.17
2018-06-19T16:13:11.685Z,23.29
2018-06-19T16:15:41.830Z,23.19
2018-06-19T16:18:13.132Z,23.12
2018-06-19T16:20:43.164Z,23.12
2018-06-19T16:23:13.571Z,23.18
2018-06-19T16:25:43.958Z,23.23
2018-06-19T16:28:14.635Z,23.27
2018-06-19T16:30:44.883Z,23.33
2018-06-19T16:33:15.042Z,23.31
2018-06-19T16:35:45.205Z,23.27
2018-06-19T16:38:15.708Z,23.29
2018-06-19T16:50:25.908Z,23.39
2018-06-19T16:52:56.267Z,23.15
2018-06-19T16:55:26.570Z,23.11
2018-06-19T16:57:56.487Z,23.03
2018-06-19T17:00:26.667Z,23.04
2018-06-19T17:02:57.076Z,23.14
2018-06-19T17:05:27.132Z,23.07
2018-06-19T17:07:58.252Z,22.97
2018-06-19T17:10:29.580Z,23.04
2018-06-19T17:13:00.706Z,23.05
2018-06-19T17:15:31.931Z,22.82
2018-06-19T17:18:01.959Z,22.75
2018-06-19T17:20:32.281Z,22.69
2018-06-19T17:23:02.521Z,22.71
2018-06-19T17:25:32.625Z,22.80
2018-06-19T17:28:02.956Z,22.82
2018-06-19T17:30:33.175Z,22.77
2018-06-19T17:33:03.361Z,22.76
2018-06-19T17:35:33.513Z,22.68
2018-06-19T17:38:03.542Z,22.67
2018-06-19T17:40:33.417Z,22.68
2018-06-19T17:43:03.971Z,22.64
2018-06-19T17:45:34.247Z,22.67
2018-06-19T17:48:04.516Z,22.61
2018-06-19T17:50:34.662Z,22.61
2018-06-19T17:53:04.866Z,22.59
2018-06-19T17:55:35.220Z,22.60
2018-06-19T17:58:05.442Z,22.69
2018-06-19T18:00:35.665Z,22.68
2018-06-19T18:03:05.751Z,22.70
2018-06-19T18:05:36.148Z,22.69
2018-06-19T18:08:06.921Z,22.58
2018-06-19T18:10:37.125Z,22.51
2018-06-19T18:13:07.437Z,22.51
2018-06-19T18:15:37.760Z,22.46
2018-06-19T18:18:07.765Z,22.44
2018-06-19T18:20:37.964Z,22.45
2018-06-19T18:23:08.247Z,22.62
2018-06-19T18:25:38.281Z,22.55
2018-06-19T18:28:08.678Z,22.49
2018-06-19T18:30:39.121Z,22.39
2018-06-19T18:33:08.846Z,22.38
2018-06-19T18:35:39.569Z,22.33
2018-06-19T18:38:10.076Z,22.36
2018-06-19T18:40:40.838Z,22.38
2018-06-19T18:43:11.143Z,22.41
2018-06-19T18:45:41.879Z,22.39
2018-06-19T18:48:12.803Z,22.36
2018-06-19T18:50:43.236Z,22.41
2018-06-19T18:53:13.370Z,22.36
2018-06-19T18:55:44.214Z,22.36
2018-06-19T18:58:14.743Z,22.31
2018-06-19T19:00:45.432Z,22.37
2018-06-19T19:03:16.173Z,22.31
2018-06-19T19:05:47.434Z,22.40
2018-06-19T19:08:22.488Z,22.33
2018-06-19T19:10:55.308Z,22.31
2018-06-19T19:13:26.883Z,22.35
2018-06-19T19:16:02.221Z,22.30
2018-06-19T19:18:37.960Z,22.32
2018-06-19T19:21:08.066Z,22.33
2018-06-19T19:23:38.152Z,22.28
2018-06-19T19:26:08.334Z,22.23
2018-06-19T19:28:43.413Z,22.28
2018-06-19T19:31:13.599Z,22.19
2018-06-19T19:33:43.800Z,22.08
2018-06-19T19:36:18.856Z,21.97
2018-06-19T19:38:54.196Z,21.91
2018-06-19T19:41:24.171Z,21.91
2018-06-19T19:43:54.412Z,21.99
2018-06-19T19:46:29.702Z,21.91
2018-06-19T19:49:00.036Z,21.98
2018-06-19T19:51:30.742Z,22.03
2018-06-19T19:54:01.327Z,21.98
2018-06-19T19:56:36.647Z,21.99
2018-06-19T19:59:07.132Z,21.85
2018-06-19T20:01:37.342Z,21.85
2018-06-19T20:04:07.898Z,21.84
2018-06-19T20:06:38.369Z,21.86
2018-06-19T20:09:09.858Z,21.86
2018-06-19T20:11:40.059Z,21.85
2018-06-19T20:14:10.270Z,21.87
2018-06-19T20:16:40.486Z,21.91
2018-06-19T20:19:10.822Z,21.90
2018-06-19T20:21:40.872Z,21.99
2018-06-19T20:24:11.145Z,21.91
2018-06-19T20:26:41.226Z,21.88
2018-06-19T20:29:11.676Z,21.89
2018-06-19T20:31:41.970Z,21.93
2018-06-19T20:34:12.196Z,21.84
2018-06-19T20:36:42.114Z,21.82
2018-06-19T20:39:12.397Z,21.80
2018-06-19T20:41:42.560Z,21.78
2018-06-19T20:44:12.082Z,21.74
2018-06-19T20:46:42.272Z,21.75
2018-06-19T20:49:13.325Z,21.77
2018-06-19T20:51:44.037Z,21.76
2018-06-19T20:54:17.283Z,21.73
2018-06-19T20:56:47.441Z,21.74
2018-06-19T20:59:17.683Z,21.74
2018-06-19T21:01:48.852Z,21.75
2018-06-19T21:04:20.036Z,21.72
2018-06-19T21:06:51.279Z,21.70
2018-06-19T21:09:22.393Z,21.70
2018-06-19T21:11:53.527Z,21.74
2018-06-19T21:14:23.962Z,21.73
2018-06-19T21:16:54.011Z,21.74
2018-06-19T21:19:24.200Z,21.76
2018-06-19T21:21:54.235Z,21.68
2018-06-19T21:24:24.577Z,21.58
2018-06-19T21:26:54.578Z,21.52
2018-06-19T21:29:24.643Z,21.51
2018-06-19T21:31:54.360Z,21.57
2018-06-19T21:34:24.423Z,21.60
2018-06-19T21:36:54.573Z,21.64
2018-06-19T21:39:24.921Z,21.69
2018-06-19T21:41:55.072Z,21.71
2018-06-19T21:44:25.053Z,21.71
2018-06-19T21:46:55.473Z,21.69
2018-06-19T21:49:25.637Z,21.68
2018-06-19T21:51:55.827Z,21.64
2018-06-19T21:54:26.141Z,21.60
2018-06-19T21:56:56.212Z,21.62
2018-06-19T21:59:26.438Z,21.64
2018-06-19T22:01:56.516Z,21.66
2018-06-19T22:04:26.499Z,21.69
2018-06-19T22:06:56.904Z,21.70
2018-06-19T22:09:27.098Z,21.70
2018-06-19T22:11:57.297Z,21.69
2018-06-19T22:14:27.486Z,21.70
2018-06-19T22:16:57.842Z,21.69
2018-06-19T22:19:27.903Z,21.64
2018-06-19T22:21:58.011Z,21.61
2018-06-19T22:24:28.173Z,21.62
2018-06-19T22:26:58.487Z,21.66
2018-06-19T22:29:28.566Z,21.67
2018-06-19T22:31:58.934Z,21.68
2018-06-19T22:34:29.274Z,21.68
2018-06-19T22:36:59.393Z,21.67
2018-06-19T22:39:29.408Z,21.65
2018-06-19T22:41:59.716Z,21.59
2018-06-19T22:44:29.925Z,21.54
2018-06-19T22:47:00.058Z,21.56
2018-06-19T22:49:30.273Z,21.57
2018-06-19T22:52:00.348Z,21.59
2018-06-19T22:54:30.537Z,21.61
2018-06-19T22:57:00.842Z,21.60
2018-06-19T22:59:30.833Z,21.54
2018-06-19T23:02:01.129Z,21.52
2018-06-19T23:04:31.252Z,21.49
2018-06-19T23:07:01.530Z,21.50
2018-06-19T23:09:31.732Z,21.48
2018-06-19T23:12:02.015Z,21.50
2018-06-19T23:14:32.124Z,21.51
2018-06-19T23:17:02.374Z,21.54
2018-06-19T23:19:32.557Z,21.56
2018-06-19T23:22:02.644Z,21.57
2018-06-19T23:24:32.934Z,21.57
2018-06-19T23:27:02.888Z,21.59
2018-06-19T23:29:33.335Z,21.57
2018-06-19T23:32:03.510Z,21.58
2018-06-19T23:34:33.651Z,21.56
2018-06-19T23:37:04.049Z,21.48
2018-06-19T23:39:37.127Z,21.46
2018-06-19T23:42:07.248Z,21.46
2018-06-19T23:44:38.107Z,21.46
2018-06-19T23:47:08.514Z,21.45
2018-06-19T23:49:38.393Z,21.42
2018-06-19T23:52:08.969Z,21.43
2018-06-19T23:54:39.426Z,21.44
2018-06-19T23:57:09.420Z,21.45
2018-06-19T23:59:39.595Z,21.45
